sensor_id;sensor_type;location;lat;lon;timestamp;pressure;altitude;pressure_sealevel;temperature;humidity
23619;BME280;18207;32.078;34.818;2022-10-31T00:00:18;100868.47;;;30.05;46.32
23619;BME280;18207;32.078;34.818;2022-10-31T00:02:48;100862.00;;;30.05;46.57
23619;BME280;18207;32.078;34.818;2022-10-31T00:05:20;100864.03;;;30.04;46.88
23619;BME280;18207;32.078;34.818;2022-10-31T00:07:53;100859.56;;;30.03;46.68
23619;BME280;18207;32.078;34.818;2022-10-31T00:10:23;100854.69;;;30.00;46.63
23619;BME280;18207;32.078;34.818;2022-10-31T00:12:56;100858.75;;;29.99;47.12
23619;BME280;18207;32.078;34.818;2022-10-31T00:15:26;100866.81;;;29.97;46.62
23619;BME280;18207;32.078;34.818;2022-10-31T00:17:56;100859.13;;;29.98;46.68
23619;BME280;18207;32.078;34.818;2022-10-31T00:20:44;100859.94;;;29.95;46.96
23619;BME280;18207;32.078;34.818;2022-10-31T00:23:17;100861.94;;;29.94;46.96
23619;BME280;18207;32.078;34.818;2022-10-31T00:25:47;100860.25;;;29.90;46.93
23619;BME280;18207;32.078;34.818;2022-10-31T00:28:17;100852.53;;;29.87;46.86
23619;BME280;18207;32.078;34.818;2022-10-31T00:30:47;100860.25;;;29.86;47.06
23619;BME280;18207;32.078;34.818;2022-10-31T00:33:17;100864.28;;;29.85;46.61
23619;BME280;18207;32.078;34.818;2022-10-31T00:35:51;100850.91;;;29.82;47.08
23619;BME280;18207;32.078;34.818;2022-10-31T00:38:21;100859.81;;;29.81;46.96
23619;BME280;18207;32.078;34.818;2022-10-31T00:40:51;100841.19;;;29.80;47.22
23619;BME280;18207;32.078;34.818;2022-10-31T00:43:22;100854.53;;;29.79;46.97
23619;BME280;18207;32.078;34.818;2022-10-31T00:45:51;100854.13;;;29.77;46.87
23619;BME280;18207;32.078;34.818;2022-10-31T00:48:22;100854.53;;;29.76;47.27
23619;BME280;18207;32.078;34.818;2022-10-31T00:50:54;100849.63;;;29.73;47.34
23619;BME280;18207;32.078;34.818;2022-10-31T00:53:24;100852.84;;;29.71;46.91
23619;BME280;18207;32.078;34.818;2022-10-31T00:55:57;100856.50;;;29.72;46.79
23619;BME280;18207;32.078;34.818;2022-10-31T00:58:27;100847.59;;;29.70;47.23
23619;BME280;18207;32.078;34.818;2022-10-31T01:00:56;100853.25;;;29.70;46.85
23619;BME280;18207;32.078;34.818;2022-10-31T01:03:29;100849.19;;;29.67;47.26
23619;BME280;18207;32.078;34.818;2022-10-31T01:06:05;100845.16;;;29.65;47.09
23619;BME280;18207;32.078;34.818;2022-10-31T01:08:38;100841.06;;;29.62;46.79
23619;BME280;18207;32.078;34.818;2022-10-31T01:11:11;100840.25;;;29.62;47.25
23619;BME280;18207;32.078;34.818;2022-10-31T01:13:43;100847.13;;;29.61;47.21
23619;BME280;18207;32.078;34.818;2022-10-31T01:16:15;100846.34;;;29.60;46.94
23619;BME280;18207;32.078;34.818;2022-10-31T01:18:49;100852.00;;;29.60;47.42
23619;BME280;18207;32.078;34.818;2022-10-31T01:21:28;100844.69;;;29.59;46.88
23619;BME280;18207;32.078;34.818;2022-10-31T01:24:03;100847.91;;;29.58;47.35
23619;BME280;18207;32.078;34.818;2022-10-31T01:26:37;100847.91;;;29.58;47.40
23619;BME280;18207;32.078;34.818;2022-10-31T01:29:10;100850.75;;;29.58;46.96
23619;BME280;18207;32.078;34.818;2022-10-31T01:31:51;100847.09;;;29.57;47.20
23619;BME280;18207;32.078;34.818;2022-10-31T01:34:24;100851.94;;;29.57;47.43
23619;BME280;18207;32.078;34.818;2022-10-31T01:36:58;100856.81;;;29.56;46.94
23619;BME280;18207;32.078;34.818;2022-10-31T01:39:31;100845.06;;;29.54;47.29
23619;BME280;18207;32.078;34.818;2022-10-31T01:42:04;100859.63;;;29.53;47.24
23619;BME280;18207;32.078;34.818;2022-10-31T01:44:56;100849.91;;;29.51;47.26
23619;BME280;18207;32.078;34.818;2022-10-31T01:47:41;100853.09;;;29.49;47.31
23619;BME280;18207;32.078;34.818;2022-10-31T01:50:27;100845.00;;;29.48;47.16
23619;BME280;18207;32.078;34.818;2022-10-31T01:53:01;100851.09;;;29.46;47.05
23619;BME280;18207;32.078;34.818;2022-10-31T01:55:35;100851.88;;;29.47;47.47
23619;BME280;18207;32.078;34.818;2022-10-31T01:58:27;100864.00;;;29.44;47.49
23619;BME280;18207;32.078;34.818;2022-10-31T02:01:02;100849.03;;;29.43;47.52
23619;BME280;18207;32.078;34.818;2022-10-31T02:03:35;100853.06;;;29.42;47.42
23619;BME280;18207;32.078;34.818;2022-10-31T02:06:18;100856.69;;;29.43;47.44
23619;BME280;18207;32.078;34.818;2022-10-31T02:08:51;100854.66;;;29.40;47.29
23619;BME280;18207;32.078;34.818;2022-10-31T02:11:37;100851.41;;;29.38;47.34
23619;BME280;18207;32.078;34.818;2022-10-31T02:14:07;100850.94;;;29.36;47.13
23619;BME280;18207;32.078;34.818;2022-10-31T02:16:41;100848.13;;;29.36;47.22
23619;BME280;18207;32.078;34.818;2022-10-31T02:19:16;100850.16;;;29.35;47.71
23619;BME280;18207;32.078;34.818;2022-10-31T02:21:57;100848.13;;;29.36;47.41
23619;BME280;18207;32.078;34.818;2022-10-31T02:24:56;100853.34;;;29.34;47.41
23619;BME280;18207;32.078;34.818;2022-10-31T02:28:05;100857.00;;;29.31;47.66
23619;BME280;18207;32.078;34.818;2022-10-31T02:31:01;100848.47;;;29.27;47.37
23619;BME280;18207;32.078;34.818;2022-10-31T02:33:43;100858.94;;;29.23;47.59
23619;BME280;18207;32.078;34.818;2022-10-31T02:36:35;100852.47;;;29.23;47.04
23619;BME280;18207;32.078;34.818;2022-10-31T02:39:18;100864.19;;;29.21;47.63
23619;BME280;18207;32.078;34.818;2022-10-31T02:42:03;100856.88;;;29.20;47.18
23619;BME280;18207;32.078;34.818;2022-10-31T02:44:42;100865.78;;;29.19;47.43
23619;BME280;18207;32.078;34.818;2022-10-31T02:47:29;100864.97;;;29.18;47.67
23619;BME280;18207;32.078;34.818;2022-10-31T02:50:06;100874.69;;;29.17;47.36
23619;BME280;18207;32.078;34.818;2022-10-31T02:52:38;100869.81;;;29.18;47.72
23619;BME280;18207;32.078;34.818;2022-10-31T02:58:08;100877.50;;;29.17;47.62
23619;BME280;18207;32.078;34.818;2022-10-31T03:00:49;100888.41;;;29.15;47.59
23619;BME280;18207;32.078;34.818;2022-10-31T03:06:24;100878.63;;;29.09;47.61
23619;BME280;18207;32.078;34.818;2022-10-31T03:09:09;100886.72;;;29.07;47.42
23619;BME280;18207;32.078;34.818;2022-10-31T03:11:58;100886.25;;;29.02;47.42
23619;BME280;18207;32.078;34.818;2022-10-31T03:14:40;100891.50;;;29.00;47.33
23619;BME280;18207;32.078;34.818;2022-10-31T03:17:27;100893.09;;;28.97;47.54
23619;BME280;18207;32.078;34.818;2022-10-31T03:20:06;100896.69;;;28.94;47.37
23619;BME280;18207;32.078;34.818;2022-10-31T03:22:52;100899.91;;;28.93;47.56
23619;BME280;18207;32.078;34.818;2022-10-31T03:25:25;100901.91;;;28.92;47.74
23619;BME280;18207;32.078;34.818;2022-10-31T03:27:58;100897.88;;;28.93;47.81
23619;BME280;18207;32.078;34.818;2022-10-31T03:30:36;100900.72;;;28.93;47.70
23619;BME280;18207;32.078;34.818;2022-10-31T03:33:12;100898.69;;;28.94;47.40
23619;BME280;18207;32.078;34.818;2022-10-31T03:35:48;100901.13;;;28.92;47.84
23619;BME280;18207;32.078;34.818;2022-10-31T03:38:21;100893.81;;;28.91;47.51
23619;BME280;18207;32.078;34.818;2022-10-31T03:40:58;100903.13;;;28.91;47.42
23619;BME280;18207;32.078;34.818;2022-10-31T03:43:35;100911.19;;;28.89;47.18
23619;BME280;18207;32.078;34.818;2022-10-31T03:46:40;100906.72;;;28.88;47.52
23619;BME280;18207;32.078;34.818;2022-10-31T03:49:20;100915.16;;;28.85;47.26
23619;BME280;18207;32.078;34.818;2022-10-31T03:52:00;100910.72;;;28.84;47.40
23619;BME280;18207;32.078;34.818;2022-10-31T03:54:39;100915.56;;;28.83;47.28
23619;BME280;18207;32.078;34.818;2022-10-31T03:57:19;100913.50;;;28.80;47.87
23619;BME280;18207;32.078;34.818;2022-10-31T03:59:57;100917.50;;;28.79;47.65
23619;BME280;18207;32.078;34.818;2022-10-31T04:02:33;100913.88;;;28.79;47.84
23619;BME280;18207;32.078;34.818;2022-10-31T04:05:06;100921.13;;;28.76;47.52
23619;BME280;18207;32.078;34.818;2022-10-31T04:07:43;100925.59;;;28.77;47.31
23619;BME280;18207;32.078;34.818;2022-10-31T04:10:18;100933.25;;;28.77;47.68
23619;BME280;18207;32.078;34.818;2022-10-31T04:12:54;100923.13;;;28.76;47.46
23619;BME280;18207;32.078;34.818;2022-10-31T04:15:26;100923.13;;;28.76;48.05
23619;BME280;18207;32.078;34.818;2022-10-31T04:17:59;100920.28;;;28.76;47.86
23619;BME280;18207;32.078;34.818;2022-10-31T04:20:32;100923.13;;;28.76;47.60
23619;BME280;18207;32.078;34.818;2022-10-31T04:23:05;100921.50;;;28.75;47.56
23619;BME280;18207;32.078;34.818;2022-10-31T04:25:41;100922.69;;;28.74;47.67
23619;BME280;18207;32.078;34.818;2022-10-31T04:28:11;100933.59;;;28.72;47.74
23619;BME280;18207;32.078;34.818;2022-10-31T04:30:41;100927.50;;;28.70;47.34
23619;BME280;18207;32.078;34.818;2022-10-31T04:33:11;100938.00;;;28.69;47.66
23619;BME280;18207;32.078;34.818;2022-10-31T04:35:43;100939.63;;;28.70;48.10
23619;BME280;18207;32.078;34.818;2022-10-31T04:38:16;100949.75;;;28.71;47.84
23619;BME280;18207;32.078;34.818;2022-10-31T04:40:46;100952.63;;;28.75;47.84
23619;BME280;18207;32.078;34.818;2022-10-31T04:43:16;100948.28;;;28.81;47.88
23619;BME280;18207;32.078;34.818;2022-10-31T04:45:47;100949.97;;;28.85;48.23
23619;BME280;18207;32.078;34.818;2022-10-31T04:48:25;100949.22;;;28.92;48.31
23619;BME280;18207;32.078;34.818;2022-10-31T04:51:00;100951.72;;;29.00;48.35
23619;BME280;18207;32.078;34.818;2022-10-31T04:53:32;100957.88;;;29.09;48.35
23619;BME280;18207;32.078;34.818;2022-10-31T04:56:04;100959.22;;;29.19;48.75
23619;BME280;18207;32.078;34.818;2022-10-31T04:58:34;100961.34;;;29.29;48.73
23619;BME280;18207;32.078;34.818;2022-10-31T05:01:04;100966.75;;;29.41;48.30
23619;BME280;18207;32.078;34.818;2022-10-31T05:03:36;100958.78;;;29.53;48.41
23619;BME280;18207;32.078;34.818;2022-10-31T05:06:08;100963.31;;;29.64;48.65
23619;BME280;18207;32.078;34.818;2022-10-31T05:08:40;100973.94;;;29.78;48.68
23619;BME280;18207;32.078;34.818;2022-10-31T05:11:10;100965.13;;;29.90;48.88
23619;BME280;18207;32.078;34.818;2022-10-31T05:13:55;100969.69;;;30.01;48.44
23619;BME280;18207;32.078;34.818;2022-10-31T05:16:25;100974.22;;;30.09;48.75
23619;BME280;18207;32.078;34.818;2022-10-31T05:19:03;100982.38;;;30.18;48.64
23619;BME280;18207;32.078;34.818;2022-10-31T05:21:37;100985.28;;;30.28;48.85
23619;BME280;18207;32.078;34.818;2022-10-31T05:24:11;100988.59;;;30.37;48.74
23619;BME280;18207;32.078;34.818;2022-10-31T05:26:41;100988.63;;;30.44;48.15
23619;BME280;18207;32.078;34.818;2022-10-31T05:29:14;100990.72;;;30.50;48.64
23619;BME280;18207;32.078;34.818;2022-10-31T05:31:44;100992.38;;;30.58;48.50
23619;BME280;18207;32.078;34.818;2022-10-31T05:34:17;100995.28;;;30.69;48.55
23619;BME280;18207;32.078;34.818;2022-10-31T05:36:47;100999.78;;;30.77;48.45
23619;BME280;18207;32.078;34.818;2022-10-31T05:39:20;101003.84;;;30.86;48.01
23619;BME280;18207;32.078;34.818;2022-10-31T05:41:50;101003.91;;;30.97;48.60
23619;BME280;18207;32.078;34.818;2022-10-31T05:44:38;101008.00;;;31.10;47.88
23619;BME280;18207;32.078;34.818;2022-10-31T05:47:51;101015.38;;;31.21;48.05
23619;BME280;18207;32.078;34.818;2022-10-31T05:50:34;101018.22;;;31.32;48.00
23619;BME280;18207;32.078;34.818;2022-10-31T05:53:05;101016.63;;;31.41;47.89
23619;BME280;18207;32.078;34.818;2022-10-31T05:55:37;101023.53;;;31.54;47.66
23619;BME280;18207;32.078;34.818;2022-10-31T05:58:17;101014.66;;;31.66;47.77
23619;BME280;18207;32.078;34.818;2022-10-31T06:00:47;101026.84;;;31.77;47.77
23619;BME280;18207;32.078;34.818;2022-10-31T06:03:17;101026.84;;;31.87;47.42
23619;BME280;18207;32.078;34.818;2022-10-31T06:05:47;101026.88;;;31.98;47.29
23619;BME280;18207;32.078;34.818;2022-10-31T06:08:22;101020.38;;;32.08;47.29
23619;BME280;18207;32.078;34.818;2022-10-31T06:10:54;101017.53;;;32.18;47.58
23619;BME280;18207;32.078;34.818;2022-10-31T06:13:23;101026.06;;;32.28;47.41
23619;BME280;18207;32.078;34.818;2022-10-31T06:15:54;101029.28;;;32.37;46.96
23619;BME280;18207;32.078;34.818;2022-10-31T06:18:23;101021.94;;;32.43;47.21
23619;BME280;18207;32.078;34.818;2022-10-31T06:20:56;101022.34;;;32.52;47.36
23619;BME280;18207;32.078;34.818;2022-10-31T06:23:26;101024.38;;;32.62;47.19
23619;BME280;18207;32.078;34.818;2022-10-31T06:25:58;101024.38;;;32.69;46.65
23619;BME280;18207;32.078;34.818;2022-10-31T06:36:30;101017.38;;;32.88;46.77
23619;BME280;18207;32.078;34.818;2022-10-31T06:39:11;101015.31;;;32.95;46.09
23619;BME280;18207;32.078;34.818;2022-10-31T06:41:47;101014.47;;;33.02;46.00
23619;BME280;18207;32.078;34.818;2022-10-31T06:44:17;101020.97;;;33.09;46.34
23619;BME280;18207;32.078;34.818;2022-10-31T06:46:47;101022.94;;;33.19;45.84
23619;BME280;18207;32.078;34.818;2022-10-31T06:49:17;101022.50;;;33.27;46.41
23619;BME280;18207;32.078;34.818;2022-10-31T06:51:49;101021.63;;;33.37;45.98
23619;BME280;18207;32.078;34.818;2022-10-31T06:54:19;101017.09;;;33.47;45.61
23619;BME280;18207;32.078;34.818;2022-10-31T07:04:51;101021.78;;;33.74;45.79
23619;BME280;18207;32.078;34.818;2022-10-31T07:07:24;101011.50;;;33.87;45.72
23619;BME280;18207;32.078;34.818;2022-10-31T07:09:54;101012.22;;;33.98;45.49
23619;BME280;18207;32.078;34.818;2022-10-31T07:12:26;101003.19;;;34.10;45.19
23619;BME280;18207;32.078;34.818;2022-10-31T07:15:00;101014.09;;;34.18;45.35
23619;BME280;18207;32.078;34.818;2022-10-31T07:17:31;101002.66;;;34.22;44.49
23619;BME280;18207;32.078;34.818;2022-10-31T07:20:05;101000.97;;;34.28;44.55
23619;BME280;18207;32.078;34.818;2022-10-31T07:22:37;101004.56;;;34.35;44.51
23619;BME280;18207;32.078;34.818;2022-10-31T07:33:08;100997.41;;;34.54;44.84
23619;BME280;18207;32.078;34.818;2022-10-31T07:35:40;100994.47;;;34.64;44.59
23619;BME280;18207;32.078;34.818;2022-10-31T07:38:15;100985.00;;;34.71;44.16
23619;BME280;18207;32.078;34.818;2022-10-31T07:40:59;100993.16;;;34.72;43.72
23619;BME280;18207;32.078;34.818;2022-10-31T07:43:29;100995.16;;;34.75;43.85
23619;BME280;18207;32.078;34.818;2022-10-31T07:46:00;100991.44;;;34.78;43.15
23619;BME280;18207;32.078;34.818;2022-10-31T07:48:30;100986.91;;;34.81;43.29
23619;BME280;18207;32.078;34.818;2022-10-31T07:51:03;100992.25;;;34.79;42.78
23619;BME280;18207;32.078;34.818;2022-10-31T07:53:51;100994.34;;;34.75;43.34
23619;BME280;18207;32.078;34.818;2022-10-31T07:56:21;100999.28;;;34.71;42.98
23619;BME280;18207;32.078;34.818;2022-10-31T07:58:52;100998.53;;;34.67;42.85
23619;BME280;18207;32.078;34.818;2022-10-31T08:01:22;100993.66;;;34.64;42.33
23619;BME280;18207;32.078;34.818;2022-10-31T08:03:57;100990.41;;;34.62;42.26
23619;BME280;18207;32.078;34.818;2022-10-31T08:06:29;100996.16;;;34.58;42.40
23619;BME280;18207;32.078;34.818;2022-10-31T08:09:00;100994.16;;;34.55;42.67
23619;BME280;18207;32.078;34.818;2022-10-31T08:11:30;100995.03;;;34.49;41.91
23619;BME280;18207;32.078;34.818;2022-10-31T08:14:00;100995.88;;;34.46;41.85
23619;BME280;18207;32.078;34.818;2022-10-31T08:16:39;100992.22;;;34.45;42.16
23619;BME280;18207;32.078;34.818;2022-10-31T08:19:09;100996.34;;;34.41;41.69
23619;BME280;18207;32.078;34.818;2022-10-31T08:21:41;101003.69;;;34.38;41.59
23619;BME280;18207;32.078;34.818;2022-10-31T08:24:11;100990.28;;;34.35;42.01
23619;BME280;18207;32.078;34.818;2022-10-31T08:26:44;100988.28;;;34.32;41.40
23619;BME280;18207;32.078;34.818;2022-10-31T08:29:17;100987.09;;;34.30;41.34
23619;BME280;18207;32.078;34.818;2022-10-31T08:31:47;100986.25;;;34.29;42.10
23619;BME280;18207;32.078;34.818;2022-10-31T08:34:31;100985.84;;;34.31;41.73
23619;BME280;18207;32.078;34.818;2022-10-31T08:37:19;100989.06;;;34.33;41.72
23619;BME280;18207;32.078;34.818;2022-10-31T08:39:49;100984.59;;;34.35;42.03
23619;BME280;18207;32.078;34.818;2022-10-31T08:42:20;100984.16;;;34.37;41.98
23619;BME280;18207;32.078;34.818;2022-10-31T08:44:50;100976.81;;;34.36;41.91
23619;BME280;18207;32.078;34.818;2022-10-31T08:47:20;100975.19;;;34.35;41.82
23619;BME280;18207;32.078;34.818;2022-10-31T08:49:53;100979.28;;;34.34;41.47
23619;BME280;18207;32.078;34.818;2022-10-31T08:52:25;100968.72;;;34.31;41.60
23619;BME280;18207;32.078;34.818;2022-10-31T08:55:18;100972.00;;;34.29;41.81
23619;BME280;18207;32.078;34.818;2022-10-31T08:57:48;100978.56;;;34.26;41.82
23619;BME280;18207;32.078;34.818;2022-10-31T09:00:18;100980.19;;;34.24;41.35
23619;BME280;18207;32.078;34.818;2022-10-31T09:02:48;100976.59;;;34.20;41.04
23619;BME280;18207;32.078;34.818;2022-10-31T09:05:27;100977.44;;;34.17;41.11
23619;BME280;18207;32.078;34.818;2022-10-31T09:08:00;100971.41;;;34.08;41.55
23619;BME280;18207;32.078;34.818;2022-10-31T09:10:36;100976.34;;;34.01;41.68
23619;BME280;18207;32.078;34.818;2022-10-31T09:13:12;100967.41;;;33.95;41.20
23619;BME280;18207;32.078;34.818;2022-10-31T09:15:45;100971.94;;;33.93;41.33
23619;BME280;18207;32.078;34.818;2022-10-31T09:18:17;100958.94;;;33.88;41.59
23619;BME280;18207;32.078;34.818;2022-10-31T09:20:49;100962.22;;;33.87;41.20
23619;BME280;18207;32.078;34.818;2022-10-31T09:23:24;100965.88;;;33.87;41.68
23619;BME280;18207;32.078;34.818;2022-10-31T09:25:55;100956.91;;;33.85;41.59
23619;BME280;18207;32.078;34.818;2022-10-31T09:28:28;100954.88;;;33.86;41.42
23619;BME280;18207;32.078;34.818;2022-10-31T09:30:58;100958.53;;;33.86;41.77
23619;BME280;18207;32.078;34.818;2022-10-31T09:33:31;100951.66;;;33.84;41.69
23619;BME280;18207;32.078;34.818;2022-10-31T09:36:01;100946.38;;;33.82;41.48
23619;BME280;18207;32.078;34.818;2022-10-31T09:38:46;100943.91;;;33.81;41.31
23619;BME280;18207;32.078;34.818;2022-10-31T09:44:33;100932.16;;;33.75;41.13
23619;BME280;18207;32.078;34.818;2022-10-31T09:47:13;100934.22;;;33.75;41.52
23619;BME280;18207;32.078;34.818;2022-10-31T09:50:17;100932.19;;;33.72;41.22
23619;BME280;18207;32.078;34.818;2022-10-31T09:53:00;100921.22;;;33.70;41.24
23619;BME280;18207;32.078;34.818;2022-10-31T09:55:40;100923.25;;;33.70;41.06
23619;BME280;18207;32.078;34.818;2022-10-31T09:58:18;100932.22;;;33.68;41.31
23619;BME280;18207;32.078;34.818;2022-10-31T10:00:53;100927.34;;;33.65;41.44
23619;BME280;18207;32.078;34.818;2022-10-31T10:03:34;100930.66;;;33.60;41.61
23619;BME280;18207;32.078;34.818;2022-10-31T10:06:16;100923.38;;;33.52;41.58
23619;BME280;18207;32.078;34.818;2022-10-31T10:08:49;100924.25;;;33.46;41.21
23619;BME280;18207;32.078;34.818;2022-10-31T10:11:50;100918.97;;;33.41;41.55
23619;BME280;18207;32.078;34.818;2022-10-31T10:14:59;100912.13;;;33.35;41.44
23619;BME280;18207;32.078;34.818;2022-10-31T10:17:44;100926.38;;;33.35;40.99
23619;BME280;18207;32.078;34.818;2022-10-31T10:20:31;100916.19;;;33.34;41.39
23619;BME280;18207;32.078;34.818;2022-10-31T10:23:35;100916.63;;;33.32;41.39
23619;BME280;18207;32.078;34.818;2022-10-31T10:26:18;100914.16;;;33.31;41.49
23619;BME280;18207;32.078;34.818;2022-10-31T10:28:57;100913.38;;;33.30;40.75
23619;BME280;18207;32.078;34.818;2022-10-31T10:31:44;100917.88;;;33.28;40.58
23619;BME280;18207;32.078;34.818;2022-10-31T10:34:23;100918.28;;;33.26;41.42
23619;BME280;18207;32.078;34.818;2022-10-31T10:37:04;100927.25;;;33.25;40.68
23619;BME280;18207;32.078;34.818;2022-10-31T10:39:40;100919.53;;;33.22;40.70
23619;BME280;18207;32.078;34.818;2022-10-31T10:42:13;100910.22;;;33.18;40.68
23619;BME280;18207;32.078;34.818;2022-10-31T10:45:16;100911.88;;;33.12;41.22
23619;BME280;18207;32.078;34.818;2022-10-31T10:48:14;100908.22;;;33.08;40.82
23619;BME280;18207;32.078;34.818;2022-10-31T10:50:49;100907.81;;;33.06;40.84
23619;BME280;18207;32.078;34.818;2022-10-31T10:57:00;100914.75;;;33.02;40.69
23619;BME280;18207;32.078;34.818;2022-10-31T10:59:47;100905.81;;;33.00;40.56
23619;BME280;18207;32.078;34.818;2022-10-31T11:02:23;100909.47;;;33.00;40.95
23619;BME280;18207;32.078;34.818;2022-10-31T11:04:58;100902.19;;;32.99;40.67
23619;BME280;18207;32.078;34.818;2022-10-31T11:07:38;100910.31;;;32.97;40.93
23619;BME280;18207;32.078;34.818;2022-10-31T11:10:14;100900.16;;;32.96;40.69
23619;BME280;18207;32.078;34.818;2022-10-31T11:15:54;100900.59;;;32.88;40.66
23619;BME280;18207;32.078;34.818;2022-10-31T11:18:32;100900.22;;;32.82;40.81
23619;BME280;18207;32.078;34.818;2022-10-31T11:21:21;100899.44;;;32.82;40.73
23619;BME280;18207;32.078;34.818;2022-10-31T11:24:07;100899.44;;;32.78;40.61
23619;BME280;18207;32.078;34.818;2022-10-31T11:26:44;100892.53;;;32.76;40.96
23619;BME280;18207;32.078;34.818;2022-10-31T11:29:23;100901.09;;;32.72;41.06
23619;BME280;18207;32.078;34.818;2022-10-31T11:31:56;100897.03;;;32.70;41.19
23619;BME280;18207;32.078;34.818;2022-10-31T11:34:35;100899.50;;;32.68;40.44
23619;BME280;18207;32.078;34.818;2022-10-31T11:37:20;100901.13;;;32.65;40.56
23619;BME280;18207;32.078;34.818;2022-10-31T11:39:54;100889.34;;;32.63;40.80
23619;BME280;18207;32.078;34.818;2022-10-31T11:42:29;100884.91;;;32.59;40.71
23619;BME280;18207;32.078;34.818;2022-10-31T11:45:15;100892.63;;;32.55;40.52
23619;BME280;18207;32.078;34.818;2022-10-31T11:47:50;100908.09;;;32.54;41.10
23619;BME280;18207;32.078;34.818;2022-10-31T11:50:36;100893.44;;;32.52;40.77
23619;BME280;18207;32.078;34.818;2022-10-31T11:53:16;100906.06;;;32.47;41.11
23619;BME280;18207;32.078;34.818;2022-10-31T11:56:12;100896.72;;;32.47;41.23
23619;BME280;18207;32.078;34.818;2022-10-31T11:58:42;100891.00;;;32.47;40.82
23619;BME280;18207;32.078;34.818;2022-10-31T12:01:25;100889.38;;;32.46;40.73
23619;BME280;18207;32.078;34.818;2022-10-31T12:04:06;100886.56;;;32.42;41.21
23619;BME280;18207;32.078;34.818;2022-10-31T12:06:41;100885.38;;;32.40;40.62
23619;BME280;18207;32.078;34.818;2022-10-31T12:09:22;100892.28;;;32.39;41.00
23619;BME280;18207;32.078;34.818;2022-10-31T12:12:23;100888.66;;;32.35;40.83
23619;BME280;18207;32.078;34.818;2022-10-31T12:15:22;100885.41;;;32.29;41.38
23619;BME280;18207;32.078;34.818;2022-10-31T12:18:17;100895.19;;;32.25;41.05
23619;BME280;18207;32.078;34.818;2022-10-31T12:21:06;100891.53;;;32.24;41.23
23619;BME280;18207;32.078;34.818;2022-10-31T12:23:56;100893.16;;;32.25;41.32
23619;BME280;18207;32.078;34.818;2022-10-31T12:26:40;100891.94;;;32.23;41.32
23619;BME280;18207;32.078;34.818;2022-10-31T12:29:33;100892.75;;;32.20;41.29
23619;BME280;18207;32.078;34.818;2022-10-31T12:32:40;100889.50;;;32.18;40.68
23619;BME280;18207;32.078;34.818;2022-10-31T12:35:47;100879.75;;;32.16;41.34
23619;BME280;18207;32.078;34.818;2022-10-31T12:38:42;100882.19;;;32.14;40.79
23619;BME280;18207;32.078;34.818;2022-10-31T12:41:36;100878.97;;;32.08;40.82
23619;BME280;18207;32.078;34.818;2022-10-31T12:47:38;100893.63;;;31.96;40.66
23619;BME280;18207;32.078;34.818;2022-10-31T12:50:35;100896.44;;;31.93;40.92
23619;BME280;18207;32.078;34.818;2022-10-31T12:53:35;100889.13;;;31.92;41.59
23619;BME280;18207;32.078;34.818;2022-10-31T12:56:30;100884.28;;;31.92;41.15
23619;BME280;18207;32.078;34.818;2022-10-31T12:59:13;100883.84;;;31.94;40.69
23619;BME280;18207;32.078;34.818;2022-10-31T13:01:53;100883.47;;;31.95;41.01
23619;BME280;18207;32.078;34.818;2022-10-31T13:04:40;100886.31;;;31.95;40.74
23619;BME280;18207;32.078;34.818;2022-10-31T13:07:24;100892.81;;;31.92;40.99
23619;BME280;18207;32.078;34.818;2022-10-31T13:10:03;100899.28;;;31.93;40.93
23619;BME280;18207;32.078;34.818;2022-10-31T13:12:47;100890.38;;;31.91;40.66
23619;BME280;18207;32.078;34.818;2022-10-31T13:15:23;100891.59;;;31.90;40.47
23619;BME280;18207;32.078;34.818;2022-10-31T13:17:57;100888.75;;;31.90;41.08
23619;BME280;18207;32.078;34.818;2022-10-31T13:20:33;100889.16;;;31.88;41.28
23619;BME280;18207;32.078;34.818;2022-10-31T13:23:22;100895.66;;;31.89;40.69
23619;BME280;18207;32.078;34.818;2022-10-31T13:26:35;100900.94;;;31.87;41.17
23619;BME280;18207;32.078;34.818;2022-10-31T13:29:18;100898.50;;;31.85;40.79
23619;BME280;18207;32.078;34.818;2022-10-31T13:31:54;100892.00;;;31.85;41.09
23619;BME280;18207;32.078;34.818;2022-10-31T13:34:30;100900.13;;;31.83;41.31
23619;BME280;18207;32.078;34.818;2022-10-31T13:37:15;100911.91;;;31.81;40.98
23619;BME280;18207;32.078;34.818;2022-10-31T13:40:04;100915.19;;;31.80;41.06
23619;BME280;18207;32.078;34.818;2022-10-31T13:42:52;100907.88;;;31.79;41.16
23619;BME280;18207;32.078;34.818;2022-10-31T13:45:27;100909.06;;;31.78;41.24
23619;BME280;18207;32.078;34.818;2022-10-31T13:48:19;100908.66;;;31.76;41.05
23619;BME280;18207;32.078;34.818;2022-10-31T13:51:05;100915.56;;;31.71;41.19
23619;BME280;18207;32.078;34.818;2022-10-31T13:53:43;100918.44;;;31.68;40.64
23619;BME280;18207;32.078;34.818;2022-10-31T13:56:19;100917.56;;;31.88;40.58
23619;BME280;18207;32.078;34.818;2022-10-31T13:59:01;100920.44;;;31.81;40.39
23619;BME280;18207;32.078;34.818;2022-10-31T14:01:47;100911.91;;;31.78;40.67
23619;BME280;18207;32.078;34.818;2022-10-31T14:04:38;100915.56;;;31.75;40.86
23619;BME280;18207;32.078;34.818;2022-10-31T14:07:16;100916.00;;;31.73;41.00
23619;BME280;18207;32.078;34.818;2022-10-31T14:09:59;100921.66;;;31.73;40.32
23619;BME280;18207;32.078;34.818;2022-10-31T14:12:35;100925.72;;;31.72;40.73
23619;BME280;18207;32.078;34.818;2022-10-31T14:15:17;100921.69;;;31.70;40.61
23619;BME280;18207;32.078;34.818;2022-10-31T14:17:55;100920.44;;;31.67;40.99